Decoded Metar for EVRA (RIGA AIRPORT in LATVIA) (IATA:N/A) | Meteo·Mobile Aviation Weather
aviador You're here:

EVRA Decoded Metar

RIGA AIRPORT in LATVIA
Report Time2018-12-16 09:50:00
UTC Time2018-12-16 10:01:55
Flight Rules mvfr MVFR
Wind120° at 08 kt
W.Decomp.*RWY 18: 3.1 kt HW 7.4 kt LCW
W.Rank120° ranks 18
Current wind is above 120° avg. (5.6)
Visibility9999 m
Phenomena:N/A
Clouds:Overcast 012 Hf
Expected CloudBase > 800 ft AGL from Temp-Dew spread
Ceiling1,200 ft
Temp-2°C (ISA -17)
Dew Point-4°C (86% RH)
AAT-7.4°C
QNH1029 hPa
Density Alt-2,530 ft
Elevation33 ft
Report Wrong Elevation
Raw Report
METAR EVRA 160950Z 12008KT 090V150 9999 OVC012 M02/M04 Q1029
R18/190095 NOSIG=

Extra information for EVRA:More info

Metar Taf Metar & Taf Last 4 Metars F.Rules Stats Wind Profile Meteogram Temp Stats Airport Information Weather charts Add Link Nearby VenuesMetar ALERT Operation Metar Decoded Social comments